Time;durP1;ratioP1;P1;durP2;ratioP2;P2;SDS_P1;SDS_P2;PMS_P1;PMS_P2;Temp;Humidity;BMP_temperature;BMP_pressure;BME280_temperature;BME280_humidity;BME280_pressure;Samples;Min_cycle;Max_cycle;Signal;HPM_P1;HPM_P2
2022/09/02 00:00:19;;;;;;;2.75;1.10;;;;;;;;;;5049780;28;20068;-62
2022/09/02 00:02:47;;;;;;;2.42;0.75;;;;;;;;;;5051749;28;20068;-63
2022/09/02 00:05:13;;;;;;;1.50;0.80;;;;;;;;;;5054189;28;20087;-62
2022/09/02 00:07:39;;;;;;;3.38;1.02;;;;;;;;;;5058928;28;20072;-63
2022/09/02 00:10:06;;;;;;;2.40;0.95;;;;;;;;;;5048765;28;20119;-62
2022/09/02 00:12:32;;;;;;;2.00;1.27;;;;;;;;;;5049631;28;20131;-63
2022/09/02 00:14:58;;;;;;;1.40;1.00;;;;;;;;;;5042187;28;20132;-62
2022/09/02 00:17:24;;;;;;;2.72;1.13;;;;;;;;;;5040688;28;20124;-62
2022/09/02 00:19:50;;;;;;;5.60;1.10;;;;;;;;;;5056708;28;20037;-62
2022/09/02 00:22:16;;;;;;;1.40;1.00;;;;;;;;;;5059026;28;20379;-62
2022/09/02 00:24:42;;;;;;;4.82;1.10;;;;;;;;;;5049580;28;20063;-62
2022/09/02 00:27:08;;;;;;;2.20;1.25;;;;;;;;;;5049772;28;20048;-63
2022/09/02 00:29:33;;;;;;;3.80;1.00;;;;;;;;;;5045505;28;20051;-63
2022/09/02 00:32:00;;;;;;;2.88;0.93;;;;;;;;;;5055173;28;20128;-63
2022/09/02 00:34:26;;;;;;;2.67;1.00;;;;;;;;;;5052311;28;20037;-63
2022/09/02 00:36:52;;;;;;;2.15;1.10;;;;;;;;;;5050687;28;20124;-62
2022/09/02 00:39:18;;;;;;;4.32;1.15;;;;;;;;;;5051109;28;20451;-63
2022/09/02 00:41:44;;;;;;;4.53;0.98;;;;;;;;;;5050738;28;20036;-63
2022/09/02 00:44:12;;;;;;;1.30;0.70;;;;;;;;;;5051087;28;20072;-63
2022/09/02 00:46:38;;;;;;;1.35;0.98;;;;;;;;;;5043383;28;20043;-63
2022/09/02 00:49:10;;;;;;;3.10;1.00;;;;;;;;;;5051610;28;20083;-63
2022/09/02 00:51:42;;;;;;;1.02;0.82;;;;;;;;;;5055772;28;20469;-63
2022/09/02 00:54:08;;;;;;;2.88;1.20;;;;;;;;;;5050843;28;20087;-63
2022/09/02 00:56:36;;;;;;;1.98;0.93;;;;;;;;;;5057290;28;20041;-63
2022/09/02 00:59:02;;;;;;;1.45;1.00;;;;;;;;;;5049070;28;20076;-63
2022/09/02 01:01:28;;;;;;;2.45;1.00;;;;;;;;;;5049768;28;20431;-63
2022/09/02 01:03:55;;;;;;;2.10;1.10;;;;;;;;;;5050714;28;20045;-63
2022/09/02 01:06:23;;;;;;;3.17;1.00;;;;;;;;;;5057316;28;20041;-63
2022/09/02 01:08:53;;;;;;;1.98;1.10;;;;;;;;;;5049321;28;20044;-63
2022/09/02 01:11:20;;;;;;;3.50;1.00;;;;;;;;;;5047723;28;20045;-62
2022/09/02 01:13:46;;;;;;;4.22;0.90;;;;;;;;;;5051621;28;20041;-63
2022/09/02 01:16:12;;;;;;;2.00;0.88;;;;;;;;;;5050893;28;20405;-63
2022/09/02 01:18:40;;;;;;;2.20;1.05;;;;;;;;;;5045966;28;20033;-63
2022/09/02 01:21:06;;;;;;;4.00;1.00;;;;;;;;;;5048088;28;20048;-63
2022/09/02 01:23:32;;;;;;;1.20;0.90;;;;;;;;;;5057009;28;20116;-63
2022/09/02 01:25:58;;;;;;;1.85;1.00;;;;;;;;;;5057148;28;20044;-63
2022/09/02 01:28:25;;;;;;;1.10;0.98;;;;;;;;;;5048611;28;20080;-63
2022/09/02 01:30:53;;;;;;;2.88;1.08;;;;;;;;;;5057086;28;20134;-63
2022/09/02 01:33:19;;;;;;;2.70;0.85;;;;;;;;;;5057549;28;20060;-63
2022/09/02 01:35:46;;;;;;;2.58;0.90;;;;;;;;;;5056655;28;20078;-63
2022/09/02 01:38:12;;;;;;;1.55;1.00;;;;;;;;;;5055646;28;20064;-63
2022/09/02 01:40:39;;;;;;;2.50;0.95;;;;;;;;;;5055169;28;20052;-63
2022/09/02 01:43:09;;;;;;;2.28;0.90;;;;;;;;;;5057058;28;20697;-63
2022/09/02 01:45:36;;;;;;;1.48;1.00;;;;;;;;;;5059628;28;20115;-63
2022/09/02 01:48:03;;;;;;;3.97;1.10;;;;;;;;;;5056380;28;20394;-63
2022/09/02 01:50:30;;;;;;;1.95;1.02;;;;;;;;;;5058929;28;20082;-63
2022/09/02 01:52:56;;;;;;;2.08;1.10;;;;;;;;;;5059729;28;20123;-63
2022/09/02 01:55:22;;;;;;;2.03;1.10;;;;;;;;;;5052536;28;20040;-63
2022/09/02 01:57:48;;;;;;;2.67;1.10;;;;;;;;;;5054772;28;20091;-63
2022/09/02 02:00:15;;;;;;;1.25;1.10;;;;;;;;;;5052869;28;20483;-63
2022/09/02 02:02:42;;;;;;;3.10;1.13;;;;;;;;;;5046143;28;20431;-63
2022/09/02 02:05:08;;;;;;;2.40;1.10;;;;;;;;;;5047745;28;20036;-63
2022/09/02 02:07:34;;;;;;;4.63;1.15;;;;;;;;;;5043026;28;20075;-63
2022/09/02 02:10:00;;;;;;;2.42;1.30;;;;;;;;;;5052677;28;20040;-63
2022/09/02 02:12:26;;;;;;;2.03;1.00;;;;;;;;;;5062263;28;20514;-63
2022/09/02 02:14:52;;;;;;;1.20;0.80;;;;;;;;;;5061006;28;20098;-63
2022/09/02 02:17:18;;;;;;;3.53;1.20;;;;;;;;;;5062421;28;20544;-63
2022/09/02 02:19:44;;;;;;;2.85;0.90;;;;;;;;;;5062620;28;20037;-63
2022/09/02 02:22:12;;;;;;;3.63;1.10;;;;;;;;;;5057405;28;20049;-63
2022/09/02 02:24:39;;;;;;;2.95;1.00;;;;;;;;;;5055595;28;20491;-63
2022/09/02 02:27:05;;;;;;;2.05;1.30;;;;;;;;;;5064254;28;20041;-63
2022/09/02 02:29:31;;;;;;;3.53;1.20;;;;;;;;;;5056845;28;20036;-63
2022/09/02 02:31:57;;;;;;;2.75;1.27;;;;;;;;;;5060490;28;20034;-62
2022/09/02 02:34:23;;;;;;;1.92;1.10;;;;;;;;;;5053561;28;20039;-63
2022/09/02 02:36:49;;;;;;;1.80;1.02;;;;;;;;;;5060107;28;20045;-63
2022/09/02 02:39:15;;;;;;;1.23;1.00;;;;;;;;;;5051741;28;20091;-63
2022/09/02 02:41:42;;;;;;;2.05;1.20;;;;;;;;;;5063082;28;20115;-63
2022/09/02 02:44:08;;;;;;;3.13;1.30;;;;;;;;;;5057249;28;20115;-63
2022/09/02 02:46:34;;;;;;;1.83;1.20;;;;;;;;;;5051086;28;20083;-63
2022/09/02 02:49:00;;;;;;;2.10;1.17;;;;;;;;;;5051815;28;20490;-63
2022/09/02 02:51:27;;;;;;;4.07;1.38;;;;;;;;;;5049523;28;20402;-63
2022/09/02 02:53:53;;;;;;;2.78;1.38;;;;;;;;;;5060378;28;20036;-63
2022/09/02 02:56:19;;;;;;;3.15;1.30;;;;;;;;;;5052690;28;20041;-63
2022/09/02 02:58:45;;;;;;;1.40;1.02;;;;;;;;;;5052351;28;20497;-63
2022/09/02 03:01:11;;;;;;;2.13;1.63;;;;;;;;;;5070712;28;20043;-63
2022/09/02 03:03:37;;;;;;;2.17;1.27;;;;;;;;;;5068012;28;20486;-63
2022/09/02 03:06:03;;;;;;;1.70;1.40;;;;;;;;;;5050634;28;20540;-63
2022/09/02 03:08:29;;;;;;;2.70;1.52;;;;;;;;;;5048715;28;20059;-63
2022/09/02 03:10:56;;;;;;;2.42;1.35;;;;;;;;;;5059008;28;20066;-63
2022/09/02 03:13:23;;;;;;;2.33;1.30;;;;;;;;;;5043624;28;20100;-63
2022/09/02 03:15:49;;;;;;;1.70;1.20;;;;;;;;;;5053089;28;20044;-63
2022/09/02 03:18:15;;;;;;;2.90;1.38;;;;;;;;;;5050652;28;20063;-63
2022/09/02 03:20:41;;;;;;;3.33;1.20;;;;;;;;;;5047372;28;20033;-63
2022/09/02 03:23:08;;;;;;;3.75;1.42;;;;;;;;;;5048556;28;20041;-63
2022/09/02 03:25:34;;;;;;;1.58;1.15;;;;;;;;;;5048752;28;20053;-63
2022/09/02 03:28:01;;;;;;;1.63;1.30;;;;;;;;;;5044830;28;20406;-63
2022/09/02 03:30:28;;;;;;;2.20;1.40;;;;;;;;;;5061737;28;20049;-63
2022/09/02 03:32:55;;;;;;;1.40;1.20;;;;;;;;;;5051906;28;20084;-63
2022/09/02 03:35:22;;;;;;;2.20;1.30;;;;;;;;;;5048124;28;20041;-63
2022/09/02 03:37:49;;;;;;;4.20;1.73;;;;;;;;;;5053463;28;20033;-63
2022/09/02 03:40:17;;;;;;;2.05;1.50;;;;;;;;;;5058831;28;20036;-63
2022/09/02 03:42:43;;;;;;;2.00;1.42;;;;;;;;;;5051239;28;20040;-63
2022/09/02 03:45:10;;;;;;;4.40;1.40;;;;;;;;;;5042727;28;20525;-63
2022/09/02 03:47:42;;;;;;;2.28;1.55;;;;;;;;;;5054443;28;20048;-63
2022/09/02 03:50:08;;;;;;;2.20;1.35;;;;;;;;;;5048646;28;20045;-63
2022/09/02 03:52:35;;;;;;;2.42;1.50;;;;;;;;;;5051331;28;20036;-63
2022/09/02 03:55:02;;;;;;;2.83;1.70;;;;;;;;;;5065064;28;20509;-63
2022/09/02 03:57:28;;;;;;;2.83;1.50;;;;;;;;;;5057559;28;20635;-63
2022/09/02 03:59:54;;;;;;;3.47;1.38;;;;;;;;;;5040920;28;20052;-63
2022/09/02 04:02:20;;;;;;;3.17;1.50;;;;;;;;;;5041393;28;20082;-63
2022/09/02 04:04:46;;;;;;;3.70;1.30;;;;;;;;;;5045818;28;20037;-63
2022/09/02 04:07:12;;;;;;;1.52;1.33;;;;;;;;;;5048001;28;20167;-63
2022/09/02 04:09:38;;;;;;;1.55;1.20;;;;;;;;;;5045388;28;20041;-63
2022/09/02 04:12:05;;;;;;;5.57;1.60;;;;;;;;;;5049136;28;20084;-63
2022/09/02 04:14:32;;;;;;;5.22;1.40;;;;;;;;;;5042416;28;20033;-63
2022/09/02 04:16:58;;;;;;;1.83;1.33;;;;;;;;;;5058682;28;20437;-63
2022/09/02 04:19:24;;;;;;;1.77;1.58;;;;;;;;;;5052132;28;20043;-63
2022/09/02 04:21:50;;;;;;;1.50;1.40;;;;;;;;;;5055259;28;20037;-63
2022/09/02 04:24:16;;;;;;;2.78;1.70;;;;;;;;;;5049755;28;20036;-63
2022/09/02 04:26:42;;;;;;;2.60;1.60;;;;;;;;;;5024555;22;1107285;-65
2022/09/02 04:29:08;;;;;;;1.95;1.50;;;;;;;;;;5049265;28;20051;-65
2022/09/02 04:31:35;;;;;;;2.47;1.60;;;;;;;;;;5051929;28;20036;-65
2022/09/02 04:34:01;;;;;;;2.88;1.77;;;;;;;;;;5038509;28;20037;-64
2022/09/02 04:36:28;;;;;;;2.25;1.65;;;;;;;;;;5037539;28;20049;-65
2022/09/02 04:38:55;;;;;;;2.60;1.42;;;;;;;;;;5031122;28;20044;-64
2022/09/02 04:41:24;;;;;;;2.63;1.70;;;;;;;;;;5033705;28;20425;-64
2022/09/02 04:43:51;;;;;;;2.88;1.58;;;;;;;;;;5042277;28;21136;-64
2022/09/02 04:46:17;;;;;;;2.42;1.50;;;;;;;;;;5024947;28;20133;-64
2022/09/02 04:48:43;;;;;;;3.42;1.80;;;;;;;;;;5038223;28;20037;-64
2022/09/02 04:51:11;;;;;;;1.88;1.73;;;;;;;;;;5031249;28;20056;-64
2022/09/02 04:53:38;;;;;;;2.05;1.70;;;;;;;;;;5031598;28;20128;-64
2022/09/02 04:56:05;;;;;;;2.53;1.67;;;;;;;;;;5023996;28;20052;-64
2022/09/02 04:58:31;;;;;;;2.03;1.65;;;;;;;;;;5045754;28;20372;-65
2022/09/02 05:00:57;;;;;;;5.10;1.98;;;;;;;;;;5047039;28;20045;-65
2022/09/02 05:03:23;;;;;;;2.85;1.67;;;;;;;;;;5049975;28;20037;-64
2022/09/02 05:05:59;;;;;;;2.28;1.83;;;;;;;;;;5050390;28;20076;-65
2022/09/02 05:08:25;;;;;;;2.72;1.60;;;;;;;;;;5048045;28;20045;-65
2022/09/02 05:10:52;;;;;;;2.72;2.00;;;;;;;;;;5039869;28;20115;-64
2022/09/02 05:13:18;;;;;;;3.42;1.73;;;;;;;;;;5046029;28;20037;-64
2022/09/02 05:15:44;;;;;;;3.08;1.83;;;;;;;;;;5029917;28;20049;-64
2022/09/02 05:18:11;;;;;;;3.47;1.95;;;;;;;;;;5050091;28;20087;-65
2022/09/02 05:20:42;;;;;;;2.85;1.65;;;;;;;;;;5044274;28;20741;-64
2022/09/02 05:23:10;;;;;;;3.45;1.73;;;;;;;;;;5047004;28;20041;-64
2022/09/02 05:25:36;;;;;;;5.10;1.60;;;;;;;;;;5048332;28;20044;-65
2022/09/02 05:28:02;;;;;;;3.60;1.83;;;;;;;;;;5037337;28;20054;-64
2022/09/02 05:30:28;;;;;;;3.55;1.58;;;;;;;;;;5040047;28;20041;-65
2022/09/02 05:32:55;;;;;;;2.33;1.70;;;;;;;;;;5047408;28;20083;-64
2022/09/02 05:35:21;;;;;;;2.30;1.55;;;;;;;;;;5039217;28;20403;-65
2022/09/02 05:37:47;;;;;;;2.05;1.60;;;;;;;;;;5035547;28;20036;-64
2022/09/02 05:40:13;;;;;;;3.45;1.55;;;;;;;;;;5035610;28;20113;-64
2022/09/02 05:42:39;;;;;;;3.50;1.60;;;;;;;;;;5038198;28;20042;-65
2022/09/02 05:45:06;;;;;;;4.78;1.98;;;;;;;;;;5043324;28;20056;-64
2022/09/02 05:47:33;;;;;;;1.88;1.50;;;;;;;;;;5021971;28;20213;-64
2022/09/02 05:50:00;;;;;;;2.42;1.60;;;;;;;;;;5044559;28;20515;-64
2022/09/02 05:52:26;;;;;;;2.97;1.80;;;;;;;;;;5026098;28;20076;-65
2022/09/02 05:54:53;;;;;;;2.58;1.70;;;;;;;;;;5041336;28;20056;-65
2022/09/02 05:57:20;;;;;;;3.70;1.80;;;;;;;;;;5038870;28;20055;-65
2022/09/02 05:59:47;;;;;;;3.47;2.00;;;;;;;;;;5037327;28;20040;-64
2022/09/02 06:02:15;;;;;;;5.32;1.73;;;;;;;;;;5021543;28;20033;-65
2022/09/02 06:04:42;;;;;;;3.30;2.00;;;;;;;;;;5027517;28;20431;-64
2022/09/02 06:07:08;;;;;;;1.70;1.60;;;;;;;;;;5042403;28;20122;-65
2022/09/02 06:09:34;;;;;;;1.85;1.60;;;;;;;;;;5041934;28;20072;-65
2022/09/02 06:12:01;;;;;;;2.92;1.60;;;;;;;;;;5047145;28;20044;-64
2022/09/02 06:14:27;;;;;;;4.60;1.80;;;;;;;;;;5044290;28;20064;-65
2022/09/02 06:16:54;;;;;;;3.00;1.60;;;;;;;;;;5035221;28;20475;-64
2022/09/02 06:19:21;;;;;;;2.65;1.55;;;;;;;;;;5044834;28;20049;-64
2022/09/02 06:21:48;;;;;;;3.25;1.75;;;;;;;;;;5044024;28;20048;-64
2022/09/02 06:24:14;;;;;;;2.38;1.63;;;;;;;;;;5038053;28;20124;-64
2022/09/02 06:26:41;;;;;;;2.75;2.00;;;;;;;;;;5044649;28;20487;-64
2022/09/02 06:29:07;;;;;;;3.95;1.92;;;;;;;;;;5047799;28;20040;-64
2022/09/02 06:31:33;;;;;;;4.47;1.80;;;;;;;;;;5042471;28;20041;-64
2022/09/02 06:33:59;;;;;;;3.85;1.80;;;;;;;;;;5040259;28;20088;-64
2022/09/02 06:36:26;;;;;;;3.78;1.88;;;;;;;;;;5044085;28;20520;-64
2022/09/02 06:38:53;;;;;;;3.90;1.77;;;;;;;;;;5049844;28;20501;-64
2022/09/02 06:41:27;;;;;;;4.68;2.08;;;;;;;;;;5043139;28;20029;-64
2022/09/02 06:43:54;;;;;;;5.47;2.00;;;;;;;;;;5050041;28;20045;-65
2022/09/02 06:46:31;;;;;;;2.20;1.63;;;;;;;;;;5040435;28;20080;-65
2022/09/02 06:48:58;;;;;;;4.05;1.70;;;;;;;;;;5041147;28;20517;-65
2022/09/02 06:51:25;;;;;;;3.45;1.83;;;;;;;;;;5048139;28;20041;-65
2022/09/02 06:53:51;;;;;;;2.17;1.80;;;;;;;;;;5028950;28;20067;-65
2022/09/02 06:56:17;;;;;;;3.63;1.70;;;;;;;;;;5049788;28;20444;-65
2022/09/02 06:58:44;;;;;;;2.83;1.75;;;;;;;;;;5049398;28;20040;-65
2022/09/02 07:01:13;;;;;;;3.10;1.73;;;;;;;;;;5043694;28;20047;-65
2022/09/02 07:06:24;;;;;;;2.60;1.85;;;;;;;;;;5047353;28;20045;-65
2022/09/02 07:08:50;;;;;;;3.08;1.60;;;;;;;;;;5044740;28;20048;-65
2022/09/02 07:11:18;;;;;;;3.25;1.85;;;;;;;;;;5046109;28;20045;-65
2022/09/02 07:13:44;;;;;;;4.40;1.90;;;;;;;;;;5047155;28;20053;-65
2022/09/02 07:16:10;;;;;;;3.50;1.92;;;;;;;;;;5044845;28;20037;-65
2022/09/02 07:18:36;;;;;;;2.30;1.70;;;;;;;;;;5046475;28;20045;-65
2022/09/02 07:21:02;;;;;;;2.45;1.95;;;;;;;;;;5045179;28;20033;-65
2022/09/02 07:23:28;;;;;;;3.35;2.22;;;;;;;;;;5042992;28;20034;-64
2022/09/02 07:25:54;;;;;;;3.05;2.00;;;;;;;;;;5045808;28;20063;-65
2022/09/02 07:28:21;;;;;;;3.78;1.80;;;;;;;;;;5047368;28;20037;-65
2022/09/02 07:30:47;;;;;;;2.38;1.85;;;;;;;;;;5041818;28;20044;-65
2022/09/02 07:33:14;;;;;;;4.72;1.70;;;;;;;;;;5043916;28;20045;-65
2022/09/02 07:35:44;;;;;;;3.08;1.58;;;;;;;;;;5037846;28;20042;-65
2022/09/02 07:38:11;;;;;;;4.63;2.10;;;;;;;;;;5046516;28;20029;-65
2022/09/02 07:40:37;;;;;;;6.05;1.60;;;;;;;;;;5046202;28;20037;-65
2022/09/02 07:43:04;;;;;;;7.72;1.60;;;;;;;;;;5041338;28;20029;-65
2022/09/02 07:45:31;;;;;;;2.80;1.58;;;;;;;;;;5047294;28;20048;-65
2022/09/02 07:47:57;;;;;;;4.97;1.60;;;;;;;;;;5050844;28;20044;-65
2022/09/02 07:50:25;;;;;;;3.15;1.50;;;;;;;;;;5038557;28;20487;-65
2022/09/02 07:52:52;;;;;;;4.18;1.40;;;;;;;;;;5040192;28;20119;-65
2022/09/02 07:55:18;;;;;;;2.90;1.42;;;;;;;;;;5048278;28;20079;-64
2022/09/02 07:57:44;;;;;;;3.92;1.52;;;;;;;;;;5048572;28;20060;-65
2022/09/02 08:00:12;;;;;;;8.02;2.28;;;;;;;;;;5048867;28;20052;-65
2022/09/02 08:02:38;;;;;;;4.18;1.60;;;;;;;;;;5037354;28;20060;-65
2022/09/02 08:05:05;;;;;;;1.90;1.38;;;;;;;;;;5038941;28;20048;-63
2022/09/02 08:07:31;;;;;;;2.67;1.38;;;;;;;;;;5046513;28;20057;-63
2022/09/02 08:09:59;;;;;;;3.80;1.55;;;;;;;;;;5047255;28;20579;-63
2022/09/02 08:12:26;;;;;;;3.47;1.50;;;;;;;;;;5037635;28;20116;-63
2022/09/02 08:14:53;;;;;;;3.70;1.63;;;;;;;;;;5044586;28;20045;-63
2022/09/02 08:17:19;;;;;;;3.85;1.55;;;;;;;;;;5044781;28;20040;-64
2022/09/02 08:19:45;;;;;;;5.68;1.55;;;;;;;;;;5041077;28;20033;-63
2022/09/02 08:22:12;;;;;;;2.80;1.58;;;;;;;;;;5042178;28;20044;-63
2022/09/02 08:24:38;;;;;;;2.55;1.58;;;;;;;;;;5047005;28;20037;-64
2022/09/02 08:27:04;;;;;;;5.75;1.67;;;;;;;;;;5022409;28;20049;-63
2022/09/02 08:29:30;;;;;;;2.75;1.60;;;;;;;;;;5046794;28;20048;-63
2022/09/02 08:31:56;;;;;;;3.50;1.45;;;;;;;;;;5046181;28;20056;-62
2022/09/02 08:34:22;;;;;;;4.70;1.60;;;;;;;;;;5046607;28;20037;-62
2022/09/02 08:36:48;;;;;;;4.05;1.70;;;;;;;;;;5051635;28;20041;-62
2022/09/02 08:39:14;;;;;;;3.05;1.67;;;;;;;;;;5048185;28;20119;-62
2022/09/02 08:41:59;;;;;;;4.38;1.30;;;;;;;;;;5038644;28;20287;-63
2022/09/02 08:44:27;;;;;;;2.90;1.30;;;;;;;;;;5038453;28;20200;-62
2022/09/02 08:46:56;;;;;;;3.28;1.58;;;;;;;;;;5039712;28;20461;-63
2022/09/02 08:49:25;;;;;;;4.07;1.40;;;;;;;;;;5049514;28;20033;-63
2022/09/02 08:51:55;;;;;;;4.18;1.75;;;;;;;;;;5043571;28;20495;-62
2022/09/02 08:54:25;;;;;;;2.47;1.53;;;;;;;;;;5047769;28;20045;-63
2022/09/02 08:56:51;;;;;;;6.22;1.50;;;;;;;;;;5040940;28;20045;-63
2022/09/02 08:59:20;;;;;;;3.10;1.30;;;;;;;;;;5050236;28;20037;-63
2022/09/02 09:01:46;;;;;;;2.92;1.23;;;;;;;;;;5051531;28;20125;-63
2022/09/02 09:04:17;;;;;;;2.13;1.30;;;;;;;;;;5040192;28;20123;-63
2022/09/02 09:06:55;;;;;;;3.00;1.20;;;;;;;;;;5042753;28;20534;-64
2022/09/02 09:09:21;;;;;;;4.40;1.40;;;;;;;;;;5039898;28;20037;-64
2022/09/02 09:11:57;;;;;;;4.45;1.33;;;;;;;;;;5037567;28;20461;-64
2022/09/02 09:14:48;;;;;;;3.17;1.90;;;;;;;;;;5038372;28;20045;-63
2022/09/02 09:17:33;;;;;;;3.92;1.23;;;;;;;;;;5038784;28;20041;-63
2022/09/02 09:20:01;;;;;;;4.00;1.38;;;;;;;;;;5041520;28;20037;-63
2022/09/02 09:22:31;;;;;;;4.38;1.27;;;;;;;;;;5043812;28;20044;-64
2022/09/02 09:24:57;;;;;;;3.13;1.02;;;;;;;;;;5044714;28;20041;-62
2022/09/02 09:27:23;;;;;;;5.00;1.17;;;;;;;;;;5045590;28;20044;-63
2022/09/02 09:29:50;;;;;;;3.40;1.30;;;;;;;;;;5047191;28;20033;-63
2022/09/02 09:32:27;;;;;;;4.00;1.55;;;;;;;;;;5040357;28;20029;-63
2022/09/02 09:34:56;;;;;;;3.97;1.55;;;;;;;;;;5042008;28;20045;-63
2022/09/02 09:37:31;;;;;;;5.28;1.20;;;;;;;;;;5045345;28;20091;-63
2022/09/02 09:39:57;;;;;;;7.00;2.38;;;;;;;;;;5043472;28;20094;-63
2022/09/02 09:42:36;;;;;;;6.15;1.83;;;;;;;;;;5048797;28;20406;-63
2022/09/02 09:45:25;;;;;;;4.10;1.55;;;;;;;;;;5046618;28;20037;-63
2022/09/02 09:48:09;;;;;;;1.85;1.00;;;;;;;;;;5046174;28;20112;-63
2022/09/02 09:50:35;;;;;;;4.72;1.10;;;;;;;;;;5035221;28;20037;-63
2022/09/02 09:53:28;;;;;;;4.20;1.08;;;;;;;;;;5046011;28;20534;-63
2022/09/02 09:55:55;;;;;;;1.30;1.10;;;;;;;;;;5032373;28;20054;-63
2022/09/02 09:58:22;;;;;;;1.83;0.82;;;;;;;;;;5042194;28;20083;-63
2022/09/02 10:00:49;;;;;;;3.55;1.00;;;;;;;;;;5045153;28;20037;-63
2022/09/02 10:03:22;;;;;;;0.90;0.80;;;;;;;;;;5048877;28;20051;-63
2022/09/02 10:05:52;;;;;;;2.97;0.93;;;;;;;;;;5048982;28;20037;-63
2022/09/02 10:08:23;;;;;;;1.75;1.25;;;;;;;;;;5054296;28;20052;-63
2022/09/02 10:10:56;;;;;;;14.90;1.48;;;;;;;;;;5054794;28;20044;-63
2022/09/02 10:13:24;;;;;;;4.25;0.90;;;;;;;;;;5052355;28;20494;-63
2022/09/02 10:15:50;;;;;;;1.40;0.98;;;;;;;;;;5049632;28;20037;-63
2022/09/02 10:18:27;;;;;;;4.70;1.00;;;;;;;;;;5042701;28;20568;-63
2022/09/02 10:20:59;;;;;;;1.75;0.90;;;;;;;;;;5038589;28;20044;-63
2022/09/02 10:23:40;;;;;;;2.78;0.95;;;;;;;;;;5043725;28;20064;-63
2022/09/02 10:26:15;;;;;;;2.30;1.00;;;;;;;;;;5045525;28;20038;-63
2022/09/02 10:28:44;;;;;;;4.00;1.00;;;;;;;;;;5051477;28;20068;-63
2022/09/02 10:31:13;;;;;;;2.97;0.80;;;;;;;;;;5057893;22;20546;-64
2022/09/02 10:34:05;;;;;;;1.85;0.80;;;;;;;;;;5018858;28;20061;-63
2022/09/02 10:36:50;;;;;;;3.63;1.00;;;;;;;;;;5010976;28;20463;-63
2022/09/02 10:39:16;;;;;;;3.97;1.10;;;;;;;;;;5029036;28;20072;-63
2022/09/02 10:41:47;;;;;;;4.05;0.93;;;;;;;;;;5032881;28;20071;-63
2022/09/02 10:44:13;;;;;;;4.00;1.05;;;;;;;;;;5022477;28;20103;-63
2022/09/02 10:46:47;;;;;;;1.67;0.80;;;;;;;;;;5039362;28;20461;-63
2022/09/02 10:49:21;;;;;;;1.88;0.85;;;;;;;;;;5033586;28;20094;-63
2022/09/02 10:51:52;;;;;;;4.13;0.90;;;;;;;;;;5014138;28;20049;-64
2022/09/02 10:54:27;;;;;;;1.23;0.80;;;;;;;;;;5019703;28;20168;-63
2022/09/02 10:56:57;;;;;;;2.47;1.00;;;;;;;;;;5017428;28;20041;-63
2022/09/02 10:59:32;;;;;;;1.65;0.75;;;;;;;;;;5028301;28;20038;-63
2022/09/02 11:02:12;;;;;;;3.20;1.00;;;;;;;;;;5022582;28;20045;-63
2022/09/02 11:04:38;;;;;;;;;;;;;;;;;;5025182;28;20037;-63
2022/09/02 11:07:08;;;;;;;3.83;1.00;;;;;;;;;;5025366;28;19940;-63
2022/09/02 11:09:37;;;;;;;1.85;0.85;;;;;;;;;;5007722;28;20174;-63
2022/09/02 11:12:11;;;;;;;2.25;0.80;;;;;;;;;;5046401;28;20053;-63
2022/09/02 11:14:48;;;;;;;2.33;0.80;;;;;;;;;;5027908;28;20053;-63
2022/09/02 11:17:20;;;;;;;3.63;1.00;;;;;;;;;;5006562;28;20492;-63
2022/09/02 11:19:57;;;;;;;3.00;1.15;;;;;;;;;;5011877;28;20487;-63
2022/09/02 11:22:32;;;;;;;2.35;0.88;;;;;;;;;;5027721;28;20038;-63
2022/09/02 11:25:10;;;;;;;3.35;1.25;;;;;;;;;;5003048;28;20044;-63
2022/09/02 11:27:59;;;;;;;2.70;0.80;;;;;;;;;;5032250;28;20047;-64
2022/09/02 11:30:31;;;;;;;2.20;0.90;;;;;;;;;;5026704;28;20091;-63
2022/09/02 11:33:06;;;;;;;1.88;1.08;;;;;;;;;;5014372;28;20038;-63
2022/09/02 11:35:37;;;;;;;2.00;0.80;;;;;;;;;;5020010;28;20069;-63
2022/09/02 11:38:03;;;;;;;;;;;;;;;;;;5023928;28;20041;-64
2022/09/02 11:40:53;;;;;;;4.25;1.00;;;;;;;;;;5022438;28;20183;-64
2022/09/02 11:43:22;;;;;;;1.93;0.87;;;;;;;;;;4979157;28;20400;-64
2022/09/02 11:45:48;;;;;;;1.27;0.70;;;;;;;;;;5012145;28;20045;-64
2022/09/02 11:48:19;;;;;;;3.45;1.10;;;;;;;;;;5030157;28;20052;-63
2022/09/02 11:50:45;;;;;;;3.47;1.00;;;;;;;;;;5029519;28;20038;-64
2022/09/02 11:53:19;;;;;;;3.40;1.00;;;;;;;;;;5040740;28;20037;-64
2022/09/02 11:55:55;;;;;;;1.95;1.10;;;;;;;;;;5028893;28;20068;-64
2022/09/02 11:58:31;;;;;;;4.10;1.10;;;;;;;;;;5016275;28;20041;-64
2022/09/02 12:00:57;;;;;;;3.63;1.25;;;;;;;;;;5012050;28;20417;-64
2022/09/02 12:03:28;;;;;;;1.35;0.90;;;;;;;;;;5010221;28;20038;-63
2022/09/02 12:06:23;;;;;;;2.80;0.93;;;;;;;;;;5022632;28;20530;-64
2022/09/02 12:08:50;;;;;;;3.28;1.10;;;;;;;;;;5004784;28;20392;-64
2022/09/02 12:11:40;;;;;;;3.22;0.93;;;;;;;;;;5028028;28;20049;-63
2022/09/02 12:14:08;;;;;;;2.60;0.93;;;;;;;;;;5007114;28;20069;-64
2022/09/02 12:16:36;;;;;;;2.40;0.95;;;;;;;;;;5020502;28;20116;-63
2022/09/02 12:19:06;;;;;;;1.30;0.90;;;;;;;;;;5017955;28;20095;-64
2022/09/02 12:21:34;;;;;;;3.20;0.90;;;;;;;;;;5024803;28;20088;-63
2022/09/02 12:24:00;;;;;;;2.83;1.10;;;;;;;;;;5018167;28;20212;-64
2022/09/02 12:26:26;;;;;;;2.33;1.20;;;;;;;;;;5020085;28;20594;-63
2022/09/02 12:28:52;;;;;;;2.30;1.00;;;;;;;;;;5001647;28;20058;-63
2022/09/02 12:31:39;;;;;;;3.40;1.20;;;;;;;;;;5010687;28;20073;-63
2022/09/02 12:34:23;;;;;;;3.35;1.00;;;;;;;;;;5028643;28;20099;-64
2022/09/02 12:36:52;;;;;;;3.40;1.35;;;;;;;;;;5019594;28;20052;-64
2022/09/02 12:39:26;;;;;;;2.92;1.20;;;;;;;;;;5020988;28;20033;-64
2022/09/02 12:42:00;;;;;;;1.27;1.15;;;;;;;;;;5022297;28;20116;-63
2022/09/02 12:44:29;;;;;;;3.20;1.10;;;;;;;;;;5019843;28;20044;-63
2022/09/02 12:46:55;;;;;;;1.30;1.10;;;;;;;;;;5036282;28;20502;-64
2022/09/02 12:49:21;;;;;;;1.65;0.93;;;;;;;;;;5035306;28;20037;-63
2022/09/02 12:51:52;;;;;;;1.17;1.02;;;;;;;;;;5029456;28;20117;-64
2022/09/02 12:54:21;;;;;;;2.35;1.20;;;;;;;;;;5031387;28;20514;-64
2022/09/02 12:56:48;;;;;;;2.05;1.10;;;;;;;;;;5028168;28;20049;-64
2022/09/02 12:59:25;;;;;;;1.75;1.23;;;;;;;;;;5027266;28;20290;-64
2022/09/02 13:01:59;;;;;;;3.13;1.45;;;;;;;;;;5041660;28;20130;-64
2022/09/02 13:04:28;;;;;;;2.80;1.40;;;;;;;;;;5021222;28;20499;-64
2022/09/02 13:06:57;;;;;;;3.38;1.08;;;;;;;;;;5019593;28;20053;-64
2022/09/02 13:09:32;;;;;;;3.88;1.20;;;;;;;;;;5017211;28;20491;-64
2022/09/02 13:12:07;;;;;;;3.10;1.20;;;;;;;;;;5037909;28;20032;-64
2022/09/02 13:14:51;;;;;;;1.52;1.13;;;;;;;;;;5017325;28;20042;-63
2022/09/02 13:44:22;;;;;;;5.88;1.38;;;;;;;;;;5028711;28;20109;-64
2022/09/02 13:46:50;;;;;;;3.97;1.20;;;;;;;;;;5022507;28;20441;-65
2022/09/02 13:49:19;;;;;;;3.03;1.20;;;;;;;;;;5023535;28;20061;-64
2022/09/02 13:51:46;;;;;;;2.42;1.30;;;;;;;;;;5017494;28;20046;-65
2022/09/02 13:54:13;;;;;;;3.10;1.48;;;;;;;;;;5029259;28;20045;-65
2022/09/02 13:56:39;;;;;;;2.47;1.30;;;;;;;;;;5030855;28;20407;-65
2022/09/02 13:59:05;;;;;;;1.90;1.48;;;;;;;;;;5029600;28;20072;-64
2022/09/02 14:01:35;;;;;;;2.92;1.40;;;;;;;;;;5030125;28;20544;-64
2022/09/02 14:04:04;;;;;;;2.33;1.30;;;;;;;;;;5030534;28;20406;-64
2022/09/02 14:06:32;;;;;;;2.28;1.10;;;;;;;;;;5028286;28;20515;-64
2022/09/02 14:09:01;;;;;;;1.60;1.50;;;;;;;;;;5024162;28;20099;-64
2022/09/02 14:11:28;;;;;;;1.60;1.20;;;;;;;;;;5029160;28;20124;-64
2022/09/02 14:13:55;;;;;;;3.95;1.30;;;;;;;;;;5030719;28;20590;-65
2022/09/02 14:16:25;;;;;;;2.38;1.00;;;;;;;;;;5031020;28;20399;-65
2022/09/02 14:19:04;;;;;;;1.75;1.35;;;;;;;;;;5029688;28;20041;-65
2022/09/02 14:21:31;;;;;;;2.85;1.35;;;;;;;;;;5029387;28;20034;-64
2022/09/02 14:23:57;;;;;;;2.42;1.35;;;;;;;;;;5030672;28;20132;-65
2022/09/02 14:26:46;;;;;;;2.20;1.27;;;;;;;;;;5031255;28;20041;-65
2022/09/02 14:29:14;;;;;;;2.33;1.27;;;;;;;;;;5018644;28;20102;-66
2022/09/02 14:31:40;;;;;;;1.55;1.10;;;;;;;;;;5033077;28;20048;-65
2022/09/02 14:34:25;;;;;;;1.73;1.20;;;;;;;;;;5034544;28;20049;-65
2022/09/02 14:36:51;;;;;;;1.60;1.15;;;;;;;;;;5034060;28;20046;-65
2022/09/02 14:39:17;;;;;;;2.38;1.30;;;;;;;;;;5015005;28;20161;-65
2022/09/02 14:41:54;;;;;;;3.50;1.30;;;;;;;;;;5028620;28;20068;-65
2022/09/02 14:44:31;;;;;;;2.00;1.30;;;;;;;;;;5034564;28;20052;-65
2022/09/02 14:46:57;;;;;;;3.30;1.20;;;;;;;;;;5034084;28;20125;-65
2022/09/02 14:49:31;;;;;;;2.67;1.38;;;;;;;;;;5032530;28;20053;-65
2022/09/02 14:52:10;;;;;;;2.30;1.52;;;;;;;;;;5029664;28;20407;-65
2022/09/02 14:54:43;;;;;;;1.48;1.20;;;;;;;;;;5014351;28;20045;-65
2022/09/02 14:57:30;;;;;;;4.03;1.40;;;;;;;;;;5014348;28;20124;-65
2022/09/02 14:59:56;;;;;;;2.63;1.30;;;;;;;;;;5027665;28;20049;-65
2022/09/02 15:02:31;;;;;;;2.63;1.35;;;;;;;;;;5033583;28;20038;-65
2022/09/02 15:05:00;;;;;;;2.72;1.40;;;;;;;;;;5033836;28;20380;-65
2022/09/02 15:07:27;;;;;;;2.45;1.30;;;;;;;;;;5033798;28;20483;-64
2022/09/02 15:09:53;;;;;;;1.92;1.20;;;;;;;;;;5031276;28;20487;-65
2022/09/02 15:12:25;;;;;;;2.83;1.20;;;;;;;;;;5027265;28;20591;-65
2022/09/02 15:14:51;;;;;;;1.55;1.13;;;;;;;;;;5032807;28;20044;-65
2022/09/02 15:17:18;;;;;;;2.42;1.15;;;;;;;;;;5033809;28;20050;-65
2022/09/02 15:19:44;;;;;;;4.13;1.40;;;;;;;;;;5013862;28;20033;-64
2022/09/02 15:22:10;;;;;;;2.08;1.25;;;;;;;;;;5028256;28;20041;-64